Time,TemperatureF,DewpointF,PressureIn,WindDirection,WindDirectionDegrees,WindSpeedMPH,WindSpeedGustMPH,Humidity,HourlyPrecipIn,Conditions,Clouds,dailyrainin,SoftwareType,DateUTC
2014-04-16 00:13:00,24.0,23.0,29.79,South,181,3.0,12.0,96,0.00,,,1.60,,2014-04-16 04:13:00,
2014-04-16 00:24:00,24.0,23.0,29.79,South,181,3.0,12.0,96,0.00,,,1.60,,2014-04-16 04:24:00,
2014-04-16 00:44:00,23.0,22.0,29.78,West,262,3.0,13.0,95,0.00,,,1.59,,2014-04-16 04:44:00,
2014-04-16 00:54:00,22.0,21.0,29.81,East,83,4.0,11.0,95,0.00,,,1.59,,2014-04-16 04:54:00,
2014-04-16 01:22:00,21.0,20.0,29.84,East,79,5.0,16.0,95,0.00,,,1.59,,2014-04-16 05:22:00,
2014-04-16 01:42:00,21.0,20.0,29.83,East,93,7.0,16.0,95,0.00,,,1.59,,2014-04-16 05:42:00,
2014-04-16 01:53:00,20.0,19.0,29.84,ENE,59,7.0,14.0,95,0.00,,,1.59,,2014-04-16 05:53:00,
2014-04-16 02:22:00,20.0,19.0,29.86,NW,312,4.0,16.0,95,0.00,,,1.59,,2014-04-16 06:22:00,
2014-04-16 02:42:00,19.0,18.0,29.86,ENE,60,8.0,18.0,94,0.00,,,1.59,,2014-04-16 06:42:00,
2014-04-16 02:52:00,18.0,17.0,29.90,ENE,78,5.0,16.0,94,0.00,,,1.59,,2014-04-16 06:52:00,
2014-04-16 03:12:00,17.0,15.0,29.90,ESE,115,5.0,9.0,93,0.00,,,1.59,,2014-04-16 07:12:00,
2014-04-16 03:22:00,17.0,15.0,29.92,ESE,110,4.0,14.0,93,0.00,,,1.58,,2014-04-16 07:22:00,
2014-04-16 03:42:00,17.0,15.0,29.93,SSW,210,5.0,11.0,93,0.00,,,1.58,,2014-04-16 07:42:00,
2014-04-16 03:52:00,17.0,16.0,29.94,East,92,4.0,11.0,94,0.00,,,1.58,,2014-04-16 07:52:00,
2014-04-16 04:22:00,17.0,16.0,29.94,NNE,21,5.0,12.0,94,0.00,,,1.58,,2014-04-16 08:22:00,
2014-04-16 04:42:00,17.0,16.0,29.96,SSE,166,0.0,11.0,94,0.00,,,1.58,,2014-04-16 08:42:00,
2014-04-16 04:52:00,16.0,15.0,29.96,NNE,12,1.0,8.0,94,0.00,,,1.58,,2014-04-16 08:52:00,
2014-04-16 05:22:00,16.0,14.0,29.96,NNE,26,2.0,13.0,93,0.00,,,1.55,,2014-04-16 09:22:00,
2014-04-16 05:44:00,16.0,14.0,30.03,ENE,77,2.0,6.0,93,0.00,,,1.55,,2014-04-16 09:44:00,
2014-04-16 05:54:00,16.0,14.0,30.04,SE,124,3.0,7.0,93,0.00,,,1.55,,2014-04-16 09:54:00,
2014-04-16 06:24:00,16.0,14.0,30.04,East,79,5.0,10.0,93,0.00,,,1.52,,2014-04-16 10:24:00,
2014-04-16 06:43:00,16.0,14.0,30.04,ENE,74,3.0,11.0,93,0.00,,,1.52,,2014-04-16 10:43:00,
2014-04-16 06:53:00,16.0,15.0,30.06,NNE,29,3.0,11.0,94,0.00,,,1.52,,2014-04-16 10:53:00,
2014-04-16 07:22:00,16.0,15.0,30.10,NNE,25,4.0,10.0,94,0.00,,,1.52,,2014-04-16 11:22:00,
2014-04-16 07:43:00,16.0,15.0,30.12,ENE,69,6.0,14.0,94,0.00,,,1.52,,2014-04-16 11:43:00,